createdAt,value
2023-10-19T16:32:05.398Z,4.50
2023-10-19T16:33:07.308Z,4.80
2023-10-19T16:34:10.112Z,4.97
2023-10-19T16:35:12.029Z,3.90
2023-10-19T16:36:14.355Z,4.70
2023-10-19T16:37:16.182Z,5.63
2023-10-19T16:38:17.762Z,3.47
2023-10-19T16:39:20.173Z,7.90
2023-10-19T16:40:22.317Z,8.10
2023-10-19T16:41:24.229Z,8.43
2023-10-19T16:42:26.021Z,9.67
2023-10-19T16:43:28.649Z,6.70
2023-10-19T16:44:31.524Z,6.20
2023-10-19T16:45:33.541Z,7.33
2023-10-19T16:46:37.531Z,6.63
2023-10-19T16:47:43.061Z,6.50
2023-10-19T16:48:45.094Z,6.20
2023-10-19T16:49:46.866Z,4.33
2023-10-19T16:50:49.486Z,3.67
2023-10-19T16:51:51.241Z,3.90
2023-10-19T16:52:53.259Z,10.03
2023-10-19T16:53:55.060Z,11.00
2023-10-19T16:54:56.593Z,11.30
2023-10-19T16:55:59.912Z,8.90
2023-10-19T16:57:03.088Z,7.60
2023-10-19T16:58:04.861Z,6.37
2023-10-19T16:59:08.102Z,6.30
2023-10-19T17:00:15.100Z,4.93
2023-10-19T17:01:18.518Z,3.93
2023-10-19T17:02:20.246Z,4.80
2023-10-19T17:03:22.102Z,6.87
2023-10-19T17:04:23.963Z,13.80
2023-10-19T17:05:27.260Z,7.20
2023-10-19T17:06:29.116Z,7.00
2023-10-19T17:07:31.045Z,8.67
2023-10-19T17:08:32.914Z,9.33
2023-10-19T17:09:35.124Z,10.37
2023-10-19T17:10:37.104Z,7.83
2023-10-19T17:11:41.320Z,9.00
2023-10-19T17:12:42.941Z,10.07
2023-10-19T17:13:44.661Z,17.20
2023-10-19T17:14:47.172Z,40.20
2023-10-19T17:15:49.145Z,54.80
2023-10-19T17:16:51.814Z,31.30
2023-10-19T17:17:54.074Z,28.67
2023-10-19T17:18:56.084Z,26.80
2023-10-19T17:19:57.912Z,26.70
2023-10-19T17:21:01.644Z,22.97
2023-10-19T17:22:03.423Z,19.43
2023-10-19T17:23:05.186Z,18.10
2023-10-19T17:24:07.645Z,13.63
2023-10-19T17:25:09.905Z,11.10
2023-10-19T17:26:12.804Z,10.63
2023-10-19T17:27:14.835Z,12.90
2023-10-19T17:28:16.636Z,15.73
2023-10-19T17:29:19.849Z,11.30
2023-10-19T17:30:22.101Z,13.37
2023-10-19T17:31:24.174Z,23.80
2023-10-19T17:32:26.261Z,29.20
2023-10-19T17:33:28.877Z,20.67
2023-10-19T17:34:31.116Z,22.70
2023-10-19T17:35:33.191Z,17.93
2023-10-19T17:36:35.725Z,19.13
2023-10-19T17:37:37.352Z,22.10
2023-10-19T17:38:39.192Z,14.30
2023-10-19T17:39:40.681Z,13.13
2023-10-19T17:40:42.420Z,10.70
2023-10-19T17:41:47.573Z,7.97
2023-10-19T17:42:49.219Z,8.97
2023-10-19T17:43:51.203Z,9.07
2023-10-19T17:44:52.917Z,9.20
2023-10-19T17:45:54.579Z,15.43
2023-10-19T17:46:56.466Z,18.17
2023-10-19T17:47:58.316Z,18.50
2023-10-19T17:48:59.980Z,20.20
2023-10-19T17:50:01.661Z,24.83
2023-10-19T17:51:10.810Z,17.63
2023-10-19T17:52:14.816Z,5.90
2023-10-19T17:53:17.510Z,3.53
2023-10-19T17:54:20.399Z,4.50
2023-10-19T17:55:22.117Z,4.67
2023-10-19T17:56:23.895Z,5.60
2023-10-19T17:57:26.578Z,5.00
2023-10-19T17:58:28.217Z,6.47
2023-10-19T17:59:31.341Z,11.70
2023-10-19T18:00:37.857Z,10.07
2023-10-19T18:01:42.794Z,5.53
2023-10-19T18:02:45.170Z,5.03
2023-10-19T18:03:47.489Z,4.47
2023-10-19T18:04:51.429Z,4.00
2023-10-19T18:05:53.179Z,3.73
2023-10-19T18:06:55.308Z,3.20
2023-10-19T18:07:57.219Z,5.13
2023-10-19T18:08:59.316Z,7.90
2023-10-19T18:10:01.234Z,8.03
2023-10-19T18:11:03.269Z,7.00
2023-10-19T18:12:06.130Z,7.23
2023-10-19T18:13:09.041Z,6.30
2023-10-19T18:14:10.774Z,6.97
2023-10-19T18:15:14.664Z,6.87
2023-10-19T18:16:16.602Z,7.37
2023-10-19T18:17:19.769Z,8.20
2023-10-19T18:18:22.599Z,7.03
2023-10-19T18:19:24.296Z,7.50
2023-10-19T18:20:27.325Z,7.40
2023-10-19T18:21:30.910Z,8.40
2023-10-19T18:22:33.679Z,9.10
2023-10-19T18:23:36.174Z,9.47
2023-10-19T18:24:38.171Z,11.20
2023-10-19T18:25:42.353Z,11.00
2023-10-19T18:26:46.722Z,11.43
2023-10-19T18:27:48.628Z,11.90
2023-10-19T18:28:50.392Z,11.40
2023-10-19T18:29:52.504Z,11.70
2023-10-19T18:31:00.451Z,9.67
2023-10-19T18:32:02.082Z,9.47
2023-10-19T18:33:04.060Z,11.30
2023-10-19T18:34:05.985Z,10.43
2023-10-19T18:35:09.289Z,10.47
2023-10-19T18:36:14.810Z,10.07
2023-10-19T18:37:17.885Z,10.40
2023-10-19T18:38:19.865Z,10.00
2023-10-19T18:39:21.864Z,8.73
2023-10-19T18:40:25.037Z,8.77
2023-10-19T18:41:32.356Z,9.63
2023-10-19T18:42:38.752Z,11.10
2023-10-19T18:43:40.686Z,10.47
2023-10-19T18:44:42.926Z,11.07
2023-10-19T18:45:44.687Z,11.67
2023-10-19T18:46:46.447Z,9.40
2023-10-19T18:47:48.119Z,9.47
2023-10-19T18:48:50.237Z,9.83
2023-10-19T18:49:56.559Z,10.93
2023-10-19T18:51:02.201Z,10.40
2023-10-19T18:52:04.887Z,11.70
2023-10-19T18:53:06.989Z,12.43
2023-10-19T18:54:08.797Z,14.40
2023-10-19T18:55:15.390Z,14.13
2023-10-19T18:56:17.361Z,14.90
2023-10-19T18:57:19.144Z,14.17
2023-10-19T18:58:24.883Z,14.00
2023-10-19T18:59:27.520Z,13.67
2023-10-19T19:00:29.930Z,14.07
2023-10-19T19:01:31.893Z,14.33
2023-10-19T19:02:33.778Z,14.13
2023-10-19T19:03:36.099Z,14.43
2023-10-19T19:04:40.128Z,12.17
2023-10-19T19:05:43.764Z,12.27
2023-10-19T19:06:45.694Z,12.50
2023-10-19T19:07:47.905Z,15.73
2023-10-19T19:08:49.948Z,14.30
2023-10-19T19:09:55.240Z,12.60
2023-10-19T19:10:59.272Z,13.33
2023-10-19T19:12:01.001Z,15.93
2023-10-19T19:13:02.663Z,14.73
2023-10-19T19:14:04.779Z,17.47
2023-10-19T19:15:07.474Z,15.50
2023-10-19T19:16:09.491Z,15.43
2023-10-19T19:17:11.744Z,17.70
2023-10-19T19:18:13.990Z,16.00
2023-10-19T19:19:15.701Z,14.50
2023-10-19T19:20:22.461Z,15.53
2023-10-19T19:21:24.435Z,16.43
2023-10-19T19:22:26.336Z,18.30
2023-10-19T19:23:29.663Z,19.00
2023-10-19T19:24:31.968Z,17.23
2023-10-19T19:25:33.992Z,22.20
2023-10-19T19:26:35.748Z,18.00
2023-10-19T19:27:37.562Z,24.90
2023-10-19T19:28:44.521Z,33.63
2023-10-19T19:29:46.494Z,25.87
2023-10-19T19:30:48.529Z,15.40
2023-10-19T19:31:52.455Z,12.30
2023-10-19T19:32:54.693Z,13.63
2023-10-19T19:33:56.237Z,12.87
2023-10-19T19:34:57.949Z,15.57
2023-10-19T19:36:00.803Z,12.67
2023-10-19T19:37:02.555Z,10.90
2023-10-19T19:38:04.979Z,10.70
2023-10-19T19:39:08.667Z,8.33
2023-10-19T19:40:13.747Z,10.60
2023-10-19T19:41:16.382Z,9.00
2023-10-19T19:42:19.039Z,9.67
2023-10-19T19:43:20.869Z,10.67
2023-10-19T19:44:22.740Z,9.10
2023-10-19T19:45:24.467Z,9.17
2023-10-19T19:46:26.133Z,9.10
2023-10-19T19:47:28.230Z,8.80
2023-10-19T19:48:29.999Z,10.17
2023-10-19T19:49:33.708Z,8.13
2023-10-19T19:50:36.207Z,10.20
2023-10-19T19:51:37.864Z,10.27
2023-10-19T19:52:40.262Z,11.40
2023-10-19T19:53:42.070Z,11.50
2023-10-19T19:54:44.191Z,15.33
2023-10-19T19:55:48.180Z,26.90
2023-10-19T19:56:50.774Z,29.30
2023-10-19T19:57:52.540Z,33.33
2023-10-19T19:58:54.449Z,22.60
2023-10-19T19:59:56.086Z,16.77
2023-10-19T20:00:57.713Z,16.93
2023-10-19T20:01:59.508Z,16.13
2023-10-19T20:03:02.132Z,16.20
2023-10-19T20:04:04.151Z,13.53
2023-10-19T20:05:06.348Z,14.63
2023-10-19T20:06:08.396Z,17.83
2023-10-19T20:07:09.999Z,38.10
2023-10-19T20:08:13.264Z,31.40
2023-10-19T20:09:14.982Z,19.43
2023-10-19T20:10:16.680Z,14.80
2023-10-19T20:11:19.435Z,14.20
2023-10-19T20:12:21.114Z,13.73
2023-10-19T20:13:23.302Z,14.67
2023-10-19T20:14:25.013Z,11.73
2023-10-19T20:15:26.819Z,14.00
2023-10-19T20:16:28.824Z,14.00
2023-10-19T20:17:32.792Z,10.87
2023-10-19T20:18:34.779Z,9.83
2023-10-19T20:19:38.590Z,10.20
2023-10-19T20:20:41.281Z,11.00
2023-10-19T20:21:43.270Z,11.27
2023-10-19T20:22:45.992Z,9.43
2023-10-19T20:23:49.158Z,12.83
2023-10-19T20:24:51.607Z,12.07
2023-10-19T20:25:53.930Z,10.13
2023-10-19T20:26:55.867Z,12.33
2023-10-19T20:28:00.127Z,12.27
2023-10-19T20:29:02.420Z,13.63
2023-10-19T20:30:04.660Z,10.97
2023-10-19T20:31:06.634Z,11.43
2023-10-19T20:32:08.394Z,11.50
2023-10-19T20:33:13.321Z,9.57
2023-10-19T20:34:15.089Z,9.17
2023-10-19T20:35:18.977Z,9.00
2023-10-19T20:36:20.855Z,9.60
2023-10-19T20:37:22.644Z,10.37
2023-10-19T20:38:24.353Z,9.60
2023-10-19T20:39:26.252Z,9.03
2023-10-19T20:40:31.817Z,9.63
2023-10-19T20:41:34.128Z,7.63
2023-10-19T20:42:47.644Z,8.60
2023-10-19T20:43:49.319Z,8.60
2023-10-19T20:44:51.064Z,9.23
2023-10-19T20:45:54.043Z,9.20
2023-10-19T20:46:55.623Z,8.47
2023-10-19T20:47:57.630Z,8.20
2023-10-19T20:48:59.497Z,7.77
2023-10-19T20:50:01.270Z,7.90
2023-10-19T20:51:06.842Z,6.70
2023-10-19T20:52:11.514Z,9.37
2023-10-19T20:53:13.317Z,10.23
2023-10-19T20:54:16.216Z,7.97
2023-10-19T20:55:17.909Z,9.67
2023-10-19T20:56:19.482Z,9.73
2023-10-19T20:57:21.112Z,8.30
2023-10-19T20:58:23.860Z,10.00
2023-10-19T20:59:26.441Z,10.60
2023-10-19T21:00:28.325Z,10.40
2023-10-19T21:01:30.426Z,13.23
2023-10-19T21:02:32.076Z,14.40
2023-10-19T21:03:33.936Z,19.13
2023-10-19T21:04:37.025Z,20.00
2023-10-19T21:05:40.218Z,21.57
2023-10-19T21:06:42.072Z,21.77
2023-10-19T21:07:45.168Z,23.47
2023-10-19T21:08:47.348Z,18.67
2023-10-19T21:09:50.056Z,23.47
2023-10-19T21:10:52.200Z,21.23
2023-10-19T21:11:54.258Z,20.63
2023-10-19T21:12:55.946Z,20.70
2023-10-19T21:13:58.166Z,21.00
2023-10-19T21:14:59.888Z,20.47
2023-10-19T21:16:04.291Z,18.07
2023-10-19T21:17:07.238Z,20.27
2023-10-19T21:18:10.421Z,18.23
2023-10-19T21:19:22.266Z,16.80
2023-10-19T21:20:28.662Z,17.73
2023-10-19T21:21:36.884Z,11.83
2023-10-19T21:22:42.240Z,13.70
2023-10-19T21:23:43.978Z,13.67
2023-10-19T21:24:45.960Z,12.53
2023-10-19T21:25:48.172Z,12.03
2023-10-19T21:26:49.961Z,12.57
2023-10-19T21:27:51.837Z,10.40
2023-10-19T21:28:53.872Z,11.07
2023-10-19T21:29:55.658Z,9.47
2023-10-19T21:30:57.625Z,8.97
2023-10-19T21:31:59.464Z,8.17
2023-10-19T21:33:01.426Z,6.97
2023-10-19T21:34:04.206Z,7.50
2023-10-19T21:35:06.208Z,7.00
2023-10-19T21:36:08.657Z,7.20
2023-10-19T21:37:10.451Z,7.57
2023-10-19T21:38:14.348Z,7.50
2023-10-19T21:39:18.391Z,5.47
2023-10-19T21:40:20.084Z,8.23
2023-10-19T21:41:22.771Z,6.17
2023-10-19T21:42:24.639Z,7.53
2023-10-19T21:43:26.731Z,6.50
2023-10-19T21:44:28.421Z,6.50
2023-10-19T21:45:30.620Z,5.93
2023-10-19T21:46:32.773Z,6.03
2023-10-19T21:47:34.448Z,6.60
2023-10-19T21:48:36.135Z,6.00
2023-10-19T21:49:37.631Z,5.00
2023-10-19T21:50:39.390Z,6.13
2023-10-19T21:51:41.532Z,5.47
2023-10-19T21:52:43.525Z,6.73
2023-10-19T21:53:45.195Z,6.40
2023-10-19T21:54:46.826Z,5.80
2023-10-19T21:55:53.196Z,6.10
2023-10-19T21:56:54.988Z,5.43
2023-10-19T21:57:56.611Z,6.47
2023-10-19T21:58:58.391Z,6.03
2023-10-19T22:00:00.510Z,6.60
2023-10-19T22:01:06.348Z,5.30
2023-10-19T22:02:08.107Z,5.43
2023-10-19T22:03:13.218Z,5.60
2023-10-19T22:04:15.318Z,5.60
2023-10-19T22:05:25.570Z,4.27
2023-10-19T22:06:27.912Z,5.50
2023-10-19T22:07:29.712Z,4.80
2023-10-19T22:08:31.415Z,6.07
2023-10-19T22:09:33.626Z,5.50
2023-10-19T22:10:35.300Z,4.63
2023-10-19T22:11:37.344Z,4.70
2023-10-19T22:12:39.323Z,4.10
2023-10-19T22:13:41.041Z,4.50
2023-10-19T22:14:44.210Z,4.77
2023-10-19T22:15:45.765Z,4.07
2023-10-19T22:16:47.294Z,5.17
2023-10-19T22:17:49.796Z,5.07
2023-10-19T22:18:52.404Z,5.13
2023-10-19T22:19:55.086Z,4.73
2023-10-19T22:20:57.395Z,4.70
2023-10-19T22:21:59.394Z,4.73
2023-10-19T22:23:01.103Z,5.37
2023-10-19T22:24:03.816Z,4.60
2023-10-19T22:25:05.914Z,4.67
2023-10-19T22:26:07.458Z,4.90
2023-10-19T22:27:09.455Z,4.63
2023-10-19T22:28:13.960Z,4.17
2023-10-19T22:29:15.762Z,4.43
2023-10-19T22:30:17.552Z,5.03
2023-10-19T22:31:19.861Z,5.00
2023-10-19T22:32:22.818Z,4.20
2023-10-19T22:33:24.901Z,4.20
2023-10-19T22:34:27.602Z,4.40
2023-10-19T22:35:29.301Z,4.33
2023-10-19T22:36:30.982Z,4.97
2023-10-19T22:37:33.597Z,4.03
2023-10-19T22:38:36.669Z,4.77
2023-10-19T22:39:38.584Z,4.40
2023-10-19T22:40:40.652Z,4.60
2023-10-19T22:41:45.526Z,4.23
2023-10-19T22:42:47.311Z,4.00
2023-10-19T22:43:51.129Z,3.43
2023-10-19T22:44:52.840Z,3.80
2023-10-19T22:45:55.217Z,3.53
2023-10-19T22:46:57.293Z,3.23
2023-10-19T22:47:59.284Z,3.20
2023-10-19T22:49:01.244Z,3.63
2023-10-19T22:50:03.121Z,3.77
2023-10-19T22:51:05.277Z,2.90
2023-10-19T22:52:07.180Z,3.20
2023-10-19T22:53:10.035Z,3.47
2023-10-19T22:54:11.641Z,2.73
2023-10-19T22:55:18.097Z,3.03
2023-10-19T22:56:20.917Z,3.53
2023-10-19T22:57:22.473Z,3.50
2023-10-19T22:58:24.096Z,3.03
2023-10-19T22:59:25.795Z,3.13
2023-10-19T23:00:28.673Z,3.90
2023-10-19T23:01:31.883Z,3.20
2023-10-19T23:02:33.591Z,3.30
2023-10-19T23:03:38.079Z,3.03
2023-10-19T23:04:41.197Z,3.10
2023-10-19T23:05:45.071Z,2.50
2023-10-19T23:06:47.136Z,3.10
2023-10-19T23:07:50.592Z,2.90
2023-10-19T23:08:55.397Z,2.77
2023-10-19T23:09:57.346Z,2.90
2023-10-19T23:10:59.086Z,3.47
2023-10-19T23:12:03.807Z,3.10
2023-10-19T23:13:05.804Z,3.27
2023-10-19T23:14:07.733Z,2.97
2023-10-19T23:15:12.891Z,3.27
2023-10-19T23:16:15.690Z,2.90
2023-10-19T23:17:18.234Z,3.00
2023-10-19T23:18:20.291Z,3.00
2023-10-19T23:19:25.394Z,2.93
2023-10-19T23:20:31.410Z,2.83
2023-10-19T23:21:37.880Z,2.80
2023-10-19T23:22:41.166Z,3.13
2023-10-19T23:23:44.868Z,3.27
2023-10-19T23:24:50.996Z,3.90
2023-10-19T23:25:56.086Z,3.03
2023-10-19T23:26:58.865Z,3.43
2023-10-19T23:28:03.407Z,3.00
2023-10-19T23:29:06.105Z,3.57
2023-10-19T23:30:10.075Z,3.17
2023-10-19T23:31:12.728Z,4.00
2023-10-19T23:32:14.904Z,3.53
2023-10-19T23:33:17.344Z,3.80
2023-10-19T23:34:19.152Z,3.60
2023-10-19T23:35:20.834Z,3.60
2023-10-19T23:36:22.589Z,3.20
2023-10-19T23:37:24.252Z,3.33
2023-10-19T23:38:28.956Z,3.73
2023-10-19T23:39:35.941Z,3.10
2023-10-19T23:40:37.651Z,3.50
2023-10-19T23:41:40.143Z,3.73
2023-10-19T23:42:42.087Z,3.03
2023-10-19T23:43:43.739Z,2.97
2023-10-19T23:44:47.974Z,3.60
2023-10-19T23:45:50.881Z,3.70
2023-10-19T23:46:53.525Z,3.80
2023-10-19T23:47:55.508Z,3.53
2023-10-19T23:48:57.195Z,3.90
2023-10-19T23:49:58.955Z,3.60
2023-10-19T23:51:00.717Z,3.67
2023-10-19T23:52:02.865Z,3.67
2023-10-19T23:53:04.685Z,3.30
2023-10-19T23:54:06.292Z,3.80
2023-10-19T23:55:10.747Z,3.70
2023-10-19T23:56:12.446Z,4.40
2023-10-19T23:57:15.676Z,3.57
2023-10-19T23:58:17.313Z,3.40
2023-10-19T23:59:19.293Z,3.50
